Time;durP1;ratioP1;P1;durP2;ratioP2;P2;SDS_P1;SDS_P2;PMS_P1;PMS_P2;Temp;Humidity;BMP_temperature;BMP_pressure;BME280_temperature;BME280_humidity;BME280_pressure;Samples;Min_cycle;Max_cycle;Signal;HPM_P1;HPM_P2
2022/03/13 00:01:10;;;;;;;9.25;3.38;;;14.20;47.90;;;;;;6094905;28;20043;-68
2022/03/13 00:04:13;;;;;;;8.27;4.18;;;14.20;48.00;;;;;;6079755;28;20028;-68
2022/03/13 00:07:25;;;;;;;6.25;3.05;;;14.20;48.00;;;;;;6065538;29;20039;-68
2022/03/13 00:10:30;;;;;;;5.90;3.22;;;14.20;48.10;;;;;;6067771;28;20044;-69
2022/03/13 00:13:36;;;;;;;12.02;4.72;;;14.20;48.20;;;;;;6056004;29;20028;-69
2022/03/13 00:16:37;;;;;;;6.15;3.35;;;14.20;48.20;;;;;;6055923;29;20068;-67
2022/03/13 00:19:38;;;;;;;5.72;3.28;;;14.20;48.10;;;;;;6058446;28;20066;-67
2022/03/13 00:22:40;;;;;;;9.95;3.53;;;14.20;48.10;;;;;;6059824;28;20048;-67
2022/03/13 00:25:42;;;;;;;4.78;3.10;;;14.20;48.10;;;;;;6057637;28;20051;-69
2022/03/13 00:28:46;;;;;;;5.13;3.15;;;14.20;48.10;;;;;;6105973;29;20127;-67
2022/03/13 00:31:47;;;;;;;7.05;3.72;;;14.20;48.20;;;;;;6111745;28;20351;-67
2022/03/13 00:34:47;;;;;;;7.43;3.40;;;14.20;48.10;;;;;;6121409;28;20079;-67
2022/03/13 00:37:48;;;;;;;6.35;3.22;;;14.20;48.10;;;;;;6114962;28;20051;-68
2022/03/13 00:40:51;;;;;;;7.78;3.65;;;14.20;48.10;;;;;;6110316;29;20040;-67
2022/03/13 00:43:52;;;;;;;6.47;3.92;;;14.20;48.20;;;;;;6116030;28;20357;-68
2022/03/13 00:46:53;;;;;;;7.75;3.50;;;14.10;48.30;;;;;;6123241;28;20040;-70
2022/03/13 00:49:54;;;;;;;6.45;3.13;;;14.10;48.50;;;;;;6114390;28;20043;-67
2022/03/13 00:52:57;;;;;;;10.02;3.63;;;14.10;48.70;;;;;;6116183;28;20353;-69
2022/03/13 00:55:58;;;;;;;5.80;3.70;;;14.00;48.60;;;;;;6121774;28;20036;-67
2022/03/13 00:58:59;;;;;;;9.25;4.45;;;14.00;48.60;;;;;;6109304;29;20126;-67
2022/03/13 01:02:00;;;;;;;12.02;3.38;;;14.00;48.70;;;;;;6100228;28;20040;-68
2022/03/13 01:05:01;;;;;;;9.60;4.07;;;14.00;48.80;;;;;;6121116;28;20087;-67
2022/03/13 01:08:02;;;;;;;9.57;3.25;;;14.00;48.80;;;;;;6123198;28;20426;-67
2022/03/13 01:11:04;;;;;;;9.02;4.05;;;13.90;48.90;;;;;;6108639;28;20040;-68
2022/03/13 01:14:05;;;;;;;6.90;3.85;;;13.90;49.00;;;;;;6117844;28;20062;-68
2022/03/13 01:17:08;;;;;;;9.57;3.88;;;13.90;49.00;;;;;;6107618;28;20520;-67
2022/03/13 01:20:21;;;;;;;7.70;3.53;;;13.90;49.10;;;;;;6108604;29;20076;-68
2022/03/13 01:23:23;;;;;;;6.05;3.17;;;13.90;49.30;;;;;;6101027;28;20377;-68
2022/03/13 01:26:23;;;;;;;7.13;3.55;;;13.90;49.30;;;;;;6119544;28;20036;-68
2022/03/13 01:29:24;;;;;;;13.45;4.03;;;13.80;49.40;;;;;;6125977;28;20064;-68
2022/03/13 01:32:25;;;;;;;5.95;3.80;;;13.80;49.40;;;;;;6114712;28;20127;-70
2022/03/13 01:35:26;;;;;;;9.30;4.07;;;13.80;49.30;;;;;;6112929;28;20051;-69
2022/03/13 01:38:32;;;;;;;7.72;3.88;;;13.80;49.30;;;;;;6090217;28;20367;-70
2022/03/13 01:41:34;;;;;;;6.10;3.25;;;13.80;49.40;;;;;;6111327;28;20043;-68
2022/03/13 01:44:35;;;;;;;7.05;3.42;;;13.80;49.50;;;;;;6117345;28;20050;-67
2022/03/13 01:47:36;;;;;;;5.70;3.50;;;13.70;49.50;;;;;;6127436;28;20047;-67
2022/03/13 01:50:37;;;;;;;6.40;3.40;;;13.70;49.60;;;;;;6121826;28;20492;-68
2022/03/13 01:53:38;;;;;;;5.85;3.33;;;13.70;49.60;;;;;;6123699;29;20123;-68
2022/03/13 01:56:41;;;;;;;6.88;3.47;;;13.80;49.70;;;;;;6115077;29;20032;-68
2022/03/13 01:59:42;;;;;;;11.35;3.88;;;13.80;49.60;;;;;;6129603;28;20046;-68
2022/03/13 02:02:47;;;;;;;11.60;3.90;;;13.80;49.60;;;;;;6113900;28;20925;-68
2022/03/13 02:05:48;;;;;;;6.45;3.65;;;13.80;49.70;;;;;;6114987;29;20078;-68
2022/03/13 02:08:50;;;;;;;7.68;3.70;;;13.80;49.70;;;;;;6115973;28;20040;-68
2022/03/13 02:11:51;;;;;;;8.45;3.90;;;13.80;49.60;;;;;;6121348;29;20059;-68
2022/03/13 02:14:52;;;;;;;6.95;4.07;;;13.70;49.60;;;;;;6115964;29;20040;-68
2022/03/13 02:17:53;;;;;;;5.78;3.55;;;13.70;49.60;;;;;;6114245;29;20076;-68
2022/03/13 02:20:54;;;;;;;15.15;4.65;;;13.70;49.60;;;;;;6104797;29;20040;-68
2022/03/13 02:23:55;;;;;;;13.93;4.10;;;13.70;49.60;;;;;;6115044;29;20453;-68
2022/03/13 02:27:06;;;;;;;9.48;4.07;;;13.70;49.60;;;;;;6119662;29;20047;-68
2022/03/13 02:30:08;;;;;;;8.73;4.13;;;13.70;49.70;;;;;;6122541;28;20028;-69
2022/03/13 02:33:09;;;;;;;10.98;4.65;;;13.70;49.80;;;;;;6109760;29;20074;-68
2022/03/13 02:36:32;;;;;;;9.50;4.32;;;13.60;49.90;;;;;;6123766;28;20115;-68
2022/03/13 02:39:36;;;;;;;9.60;3.90;;;13.60;49.90;;;;;;6105921;28;20046;-68
2022/03/13 02:42:37;;;;;;;9.95;4.38;;;13.60;49.90;;;;;;6115694;29;20032;-68
2022/03/13 02:45:38;;;;;;;11.73;4.35;;;13.60;50.00;;;;;;6117238;28;20031;-68
2022/03/13 02:48:39;;;;;;;9.02;4.07;;;13.50;50.00;;;;;;6110984;28;20055;-68
2022/03/13 02:51:43;;;;;;;10.95;3.83;;;13.50;50.00;;;;;;6128534;28;20361;-68
2022/03/13 02:54:45;;;;;;;9.43;3.95;;;13.50;50.10;;;;;;6125073;29;20046;-68
2022/03/13 02:57:46;;;;;;;9.15;4.60;;;13.60;50.10;;;;;;6117524;29;20048;-68
2022/03/13 03:00:50;;;;;;;10.02;4.00;;;13.50;50.20;;;;;;6121671;28;20040;-68
2022/03/13 03:03:58;;;;;;;6.90;3.70;;;13.60;50.30;;;;;;6120555;29;20115;-68
2022/03/13 03:07:04;;;;;;;6.72;3.80;;;13.50;50.40;;;;;;6117288;28;20039;-68
2022/03/13 03:10:10;;;;;;;7.43;3.60;;;13.50;50.70;;;;;;6122324;29;20043;-69
2022/03/13 03:13:13;;;;;;;10.88;4.13;;;13.40;50.80;;;;;;6107512;29;20047;-68
2022/03/13 03:16:14;;;;;;;5.82;3.50;;;13.40;51.10;;;;;;6119383;28;20059;-68
2022/03/13 03:19:15;;;;;;;13.25;3.97;;;13.40;51.20;;;;;;6099405;29;20083;-68
2022/03/13 03:22:16;;;;;;;7.85;3.95;;;13.40;51.20;;;;;;6122824;28;20040;-68
2022/03/13 03:25:24;;;;;;;6.95;3.72;;;13.40;51.20;;;;;;6101945;29;20054;-68
2022/03/13 03:28:25;;;;;;;13.60;4.45;;;13.30;51.10;;;;;;6118373;28;20040;-68
2022/03/13 03:31:26;;;;;;;8.23;3.22;;;13.30;51.10;;;;;;6105131;29;20437;-68
2022/03/13 03:34:28;;;;;;;8.00;4.20;;;13.30;51.20;;;;;;6119437;28;20036;-68
2022/03/13 03:37:33;;;;;;;6.80;4.18;;;13.30;51.30;;;;;;6106284;28;20083;-68
2022/03/13 03:40:35;;;;;;;10.40;4.05;;;13.30;51.40;;;;;;6111556;28;20039;-68
2022/03/13 03:43:36;;;;;;;9.77;4.20;;;13.30;51.50;;;;;;6120416;29;20153;-68
2022/03/13 03:46:38;;;;;;;7.68;3.85;;;13.20;51.60;;;;;;6116760;28;20055;-68
2022/03/13 03:49:39;;;;;;;6.88;3.85;;;13.20;51.70;;;;;;6122401;28;20075;-67
2022/03/13 03:52:41;;;;;;;7.88;4.25;;;13.20;51.80;;;;;;6116035;28;20072;-68
2022/03/13 03:55:42;;;;;;;9.10;4.28;;;13.30;51.80;;;;;;6125713;29;20025;-68
2022/03/13 03:58:42;;;;;;;8.90;4.15;;;13.20;51.70;;;;;;6119712;29;20472;-68
2022/03/13 04:01:43;;;;;;;6.30;3.55;;;13.20;51.70;;;;;;6106402;29;20051;-67
2022/03/13 04:04:44;;;;;;;10.00;3.80;;;13.20;51.60;;;;;;6115201;28;20051;-67
2022/03/13 04:07:45;;;;;;;7.55;4.07;;;13.20;51.60;;;;;;6117454;29;20126;-67
2022/03/13 04:10:46;;;;;;;7.82;3.70;;;13.30;51.60;;;;;;6118883;29;20044;-68
2022/03/13 04:13:47;;;;;;;7.20;3.97;;;13.30;51.60;;;;;;6109782;28;20068;-68
2022/03/13 04:16:51;;;;;;;11.25;3.72;;;13.30;51.70;;;;;;6116576;28;20036;-67
2022/03/13 04:19:52;;;;;;;7.95;4.15;;;13.30;51.70;;;;;;6102071;28;20527;-67
2022/03/13 04:22:54;;;;;;;13.40;4.75;;;13.30;51.60;;;;;;6119486;29;20047;-67
2022/03/13 04:25:55;;;;;;;8.65;4.20;;;13.30;51.60;;;;;;6098144;28;20504;-68
2022/03/13 04:28:56;;;;;;;9.27;4.50;;;13.30;51.70;;;;;;6112857;28;20036;-68
2022/03/13 04:31:57;;;;;;;10.35;4.40;;;13.20;51.70;;;;;;6114762;28;20087;-67
2022/03/13 04:34:58;;;;;;;11.45;3.92;;;13.20;51.80;;;;;;6118767;29;20098;-67
2022/03/13 04:37:59;;;;;;;10.20;4.32;;;13.30;51.80;;;;;;6121481;28;20040;-67
2022/03/13 04:41:00;;;;;;;8.82;4.15;;;13.20;51.80;;;;;;6108703;28;20059;-67
2022/03/13 04:44:01;;;;;;;7.40;4.07;;;13.20;51.80;;;;;;6126344;28;20040;-67
2022/03/13 04:47:02;;;;;;;11.45;4.88;;;13.20;51.80;;;;;;6108969;28;20048;-68
2022/03/13 04:50:03;;;;;;;12.85;5.88;;;13.20;51.70;;;;;;6116731;29;20056;-67
2022/03/13 04:53:04;;;;;;;27.95;5.63;;;13.20;51.70;;;;;;6114357;28;20040;-67
2022/03/13 04:56:05;;;;;;;12.55;6.68;;;13.30;51.70;;;;;;6125140;28;20090;-69
2022/03/13 04:59:07;;;;;;;13.05;7.07;;;13.20;51.70;;;;;;6125129;28;20043;-69
2022/03/13 05:02:08;;;;;;;22.23;9.82;;;13.20;51.70;;;;;;6110648;28;20032;-69
2022/03/13 05:05:09;;;;;;;30.95;13.15;;;13.20;51.80;;;;;;6116066;28;20044;-69
2022/03/13 05:08:15;;;;;;;30.58;15.75;;;13.20;51.80;;;;;;6099006;28;20181;-69
2022/03/13 05:11:17;;;;;;;24.98;12.75;;;13.20;51.70;;;;;;6121713;28;20043;-69
2022/03/13 05:14:18;;;;;;;18.35;7.13;;;13.20;51.70;;;;;;6123485;28;20413;-69
2022/03/13 05:17:19;;;;;;;13.70;6.28;;;13.20;51.80;;;;;;6110632;28;20046;-68
2022/03/13 05:20:20;;;;;;;13.02;6.50;;;13.20;52.00;;;;;;6120299;28;20162;-69
2022/03/13 05:23:22;;;;;;;12.10;5.28;;;13.20;51.90;;;;;;6122452;28;20342;-68
2022/03/13 05:26:23;;;;;;;10.73;4.47;;;13.20;51.80;;;;;;6125692;28;20043;-69
2022/03/13 05:29:24;;;;;;;17.25;8.18;;;13.30;51.90;;;;;;6122702;29;20040;-68
2022/03/13 05:32:25;;;;;;;20.85;9.32;;;13.30;51.90;;;;;;6116567;28;20043;-68
2022/03/13 05:35:27;;;;;;;17.02;7.55;;;13.30;51.80;;;;;;6122130;28;20104;-69
2022/03/13 05:38:28;;;;;;;13.73;5.82;;;13.40;51.80;;;;;;6114361;29;20195;-69
2022/03/13 05:41:30;;;;;;;13.23;5.28;;;13.40;51.70;;;;;;6117461;28;20040;-69
2022/03/13 05:44:31;;;;;;;11.95;5.40;;;13.40;51.70;;;;;;6116975;29;20055;-69
2022/03/13 05:47:32;;;;;;;11.48;5.47;;;13.40;51.80;;;;;;6123263;28;20062;-68
2022/03/13 05:50:33;;;;;;;12.70;4.97;;;13.40;51.90;;;;;;6108156;29;20123;-68
2022/03/13 05:53:34;;;;;;;9.98;5.18;;;13.30;52.60;;;;;;6117807;28;20036;-68
2022/03/13 05:56:34;;;;;;;9.20;4.75;;;13.30;52.10;;;;;;6118549;28;20032;-68
2022/03/13 05:59:37;;;;;;;9.43;4.97;;;13.30;52.10;;;;;;6120550;28;20039;-68
2022/03/13 06:02:40;;;;;;;12.55;5.10;;;13.30;52.10;;;;;;6117900;28;20468;-68
2022/03/13 06:05:41;;;;;;;13.40;6.68;;;13.30;52.00;;;;;;6108445;28;20327;-68
2022/03/13 06:08:42;;;;;;;14.07;7.18;;;13.30;52.00;;;;;;6130132;28;20035;-68
2022/03/13 06:11:42;;;;;;;14.02;6.15;;;13.40;52.00;;;;;;6121448;28;20036;-68
2022/03/13 06:14:43;;;;;;;15.50;6.80;;;13.40;51.90;;;;;;6107563;29;20035;-68
2022/03/13 06:17:46;;;;;;;14.23;6.38;;;13.40;51.90;;;;;;6121105;29;20063;-67
2022/03/13 06:20:47;;;;;;;16.35;6.05;;;13.30;51.90;;;;;;6121318;28;20051;-67
2022/03/13 06:23:48;;;;;;;11.55;5.38;;;13.20;51.90;;;;;;6121399;28;20394;-67
2022/03/13 06:26:49;;;;;;;11.40;5.57;;;13.20;52.10;;;;;;6121868;28;20076;-67
2022/03/13 06:29:49;;;;;;;11.02;5.63;;;13.10;52.10;;;;;;6120177;28;20032;-68
2022/03/13 06:32:52;;;;;;;14.18;6.25;;;13.10;52.20;;;;;;6117664;29;20119;-68
2022/03/13 06:35:53;;;;;;;11.90;5.47;;;13.20;52.20;;;;;;6122938;28;20060;-67
2022/03/13 06:38:55;;;;;;;13.88;5.93;;;13.20;52.20;;;;;;6107908;29;20053;-68
2022/03/13 06:41:58;;;;;;;13.82;6.20;;;13.20;52.10;;;;;;6118373;29;20039;-68
2022/03/13 06:44:58;;;;;;;11.25;5.78;;;13.20;52.10;;;;;;6122610;28;20035;-68
2022/03/13 06:48:00;;;;;;;12.50;5.38;;;13.30;52.00;;;;;;6128200;28;20040;-68
2022/03/13 06:51:01;;;;;;;18.95;5.57;;;13.40;52.10;;;;;;6123083;28;20032;-67
2022/03/13 06:54:03;;;;;;;13.07;5.65;;;13.40;52.00;;;;;;6120465;28;20378;-68
2022/03/13 06:57:04;;;;;;;11.60;5.45;;;13.50;52.00;;;;;;6119715;29;20115;-67
2022/03/13 07:00:06;;;;;;;10.52;5.72;;;13.50;51.90;;;;;;6121188;29;20040;-67
2022/03/13 07:03:07;;;;;;;9.15;5.00;;;13.50;51.90;;;;;;6120930;28;20039;-68
2022/03/13 07:06:08;;;;;;;11.10;4.82;;;13.50;51.90;;;;;;6119268;29;20453;-68
2022/03/13 07:09:09;;;;;;;14.48;4.85;;;13.50;52.00;;;;;;6117639;29;20044;-67
2022/03/13 07:12:12;;;;;;;8.45;4.63;;;13.40;52.00;;;;;;6121297;29;20108;-68
2022/03/13 07:15:13;;;;;;;9.68;4.82;;;13.40;52.20;;;;;;6121682;28;20051;-68
2022/03/13 07:18:14;;;;;;;8.45;4.22;;;13.40;52.10;;;;;;6106512;29;20040;-68
2022/03/13 07:21:16;;;;;;;14.07;4.20;;;13.40;52.10;;;;;;6120179;28;20043;-68
2022/03/13 07:24:17;;;;;;;9.50;5.05;;;13.40;52.20;;;;;;6100185;29;20425;-68
2022/03/13 07:27:18;;;;;;;9.88;4.43;;;13.40;52.20;;;;;;6123959;29;20118;-68
2022/03/13 07:30:19;;;;;;;7.22;4.00;;;13.40;52.20;;;;;;6121662;29;20038;-68
2022/03/13 07:33:20;;;;;;;6.40;4.13;;;13.50;52.20;;;;;;6118059;28;20040;-68
2022/03/13 07:36:21;;;;;;;10.00;4.18;;;13.50;52.10;;;;;;6116922;29;20048;-68
2022/03/13 07:39:22;;;;;;;7.35;4.13;;;13.50;52.00;;;;;;6119961;29;20126;-68
2022/03/13 07:42:23;;;;;;;10.20;4.13;;;13.60;51.90;;;;;;6123237;28;20038;-67
2022/03/13 07:45:25;;;;;;;11.25;4.32;;;13.70;51.80;;;;;;6127180;29;20043;-69
2022/03/13 07:48:27;;;;;;;6.55;3.83;;;13.80;51.70;;;;;;6126742;29;20135;-68
2022/03/13 07:51:28;;;;;;;8.60;4.53;;;13.90;51.50;;;;;;6111750;29;20043;-68
2022/03/13 07:54:28;;;;;;;9.52;4.07;;;14.00;51.30;;;;;;6121691;29;20036;-68
2022/03/13 07:57:30;;;;;;;8.20;4.15;;;14.00;51.20;;;;;;6119688;29;20040;-69
2022/03/13 08:00:31;;;;;;;11.45;4.50;;;14.00;51.60;;;;;;6117417;29;20543;-68
2022/03/13 08:03:35;;;;;;;6.70;4.25;;;14.00;51.10;;;;;;6104992;29;20039;-68
2022/03/13 08:06:36;;;;;;;7.45;4.28;;;14.00;51.10;;;;;;6121557;29;20122;-68
2022/03/13 08:09:39;;;;;;;8.38;4.05;;;14.00;51.10;;;;;;6122606;28;20040;-68
2022/03/13 08:12:39;;;;;;;8.15;4.28;;;14.00;51.20;;;;;;6121802;29;20168;-68
2022/03/13 08:15:40;;;;;;;8.40;4.15;;;14.00;51.20;;;;;;6112644;29;20469;-69
2022/03/13 08:18:41;;;;;;;8.68;3.80;;;13.90;51.20;;;;;;6121283;29;20054;-69
2022/03/13 08:21:43;;;;;;;8.80;4.03;;;14.00;51.20;;;;;;6121340;29;20044;-68
2022/03/13 08:24:43;;;;;;;13.60;4.63;;;14.10;51.10;;;;;;6109755;29;20056;-68
2022/03/13 08:27:44;;;;;;;14.23;4.72;;;14.20;50.90;;;;;;6115186;28;20046;-68
2022/03/13 08:30:45;;;;;;;26.70;5.28;;;14.30;50.60;;;;;;6114201;28;20099;-68
2022/03/13 08:33:46;;;;;;;9.80;4.63;;;14.30;50.50;;;;;;6113576;29;20418;-68
2022/03/13 08:36:48;;;;;;;17.70;4.60;;;14.50;50.40;;;;;;6115661;29;20050;-66
2022/03/13 08:39:49;;;;;;;10.95;5.05;;;14.50;50.30;;;;;;6115760;28;20422;-67
2022/03/13 08:42:50;;;;;;;7.72;4.20;;;14.60;50.10;;;;;;6117220;29;20051;-67
2022/03/13 08:45:51;;;;;;;10.02;5.07;;;14.60;50.00;;;;;;6106801;29;20385;-67
2022/03/13 08:48:52;;;;;;;14.00;4.95;;;14.70;49.90;;;;;;6117663;29;20052;-67
2022/03/13 08:51:53;;;;;;;13.98;4.93;;;14.80;50.50;;;;;;6115201;29;20052;-67
2022/03/13 08:54:54;;;;;;;9.85;4.95;;;14.80;49.80;;;;;;6127868;28;20118;-69
2022/03/13 08:57:55;;;;;;;10.82;5.20;;;14.80;49.70;;;;;;6122704;28;20094;-67
2022/03/13 09:00:57;;;;;;;11.50;5.35;;;14.90;49.70;;;;;;6116000;29;20032;-67
2022/03/13 09:03:58;;;;;;;11.98;5.00;;;15.00;49.50;;;;;;6119560;28;20035;-67
2022/03/13 09:06:59;;;;;;;12.15;4.85;;;15.00;49.40;;;;;;6117642;28;20057;-67
2022/03/13 09:10:02;;;;;;;12.20;5.18;;;15.10;49.40;;;;;;6105627;29;20036;-67
2022/03/13 09:13:03;;;;;;;10.77;5.20;;;15.20;49.00;;;;;;6105645;29;20182;-68
2022/03/13 09:16:04;;;;;;;9.18;4.97;;;15.20;48.60;;;;;;6119876;29;20040;-68
2022/03/13 09:19:06;;;;;;;11.15;5.18;;;15.30;48.50;;;;;;6126053;28;20134;-68
2022/03/13 09:22:07;;;;;;;9.20;5.72;;;15.30;48.60;;;;;;6120275;29;20050;-67
2022/03/13 09:25:09;;;;;;;14.13;6.22;;;15.40;48.60;;;;;;6115575;29;20048;-67
2022/03/13 09:28:11;;;;;;;14.27;5.18;;;15.50;48.40;;;;;;6121717;29;20046;-67
2022/03/13 09:31:11;;;;;;;10.20;5.32;;;15.50;48.10;;;;;;6108317;29;20038;-67
2022/03/13 09:34:12;;;;;;;9.68;5.55;;;15.60;47.90;;;;;;6125900;28;20027;-68
2022/03/13 09:37:14;;;;;;;8.73;5.22;;;15.70;47.70;;;;;;6120258;29;20036;-67
2022/03/13 09:40:17;;;;;;;12.50;6.03;;;15.80;47.70;;;;;;6121418;28;20043;-68
2022/03/13 09:43:20;;;;;;;20.02;6.05;;;15.70;47.20;;;;;;6105968;29;20052;-68
2022/03/13 09:46:21;;;;;;;10.93;5.43;;;15.80;47.00;;;;;;6121335;28;20072;-68
2022/03/13 09:49:23;;;;;;;14.90;6.18;;;15.90;46.60;;;;;;6120912;29;20066;-68
2022/03/13 09:52:24;;;;;;;17.45;5.85;;;16.00;46.50;;;;;;6121813;28;20499;-69
2022/03/13 09:55:27;;;;;;;11.55;6.00;;;16.00;46.70;;;;;;6121313;28;20032;-68
2022/03/13 09:58:29;;;;;;;12.65;6.05;;;16.00;46.80;;;;;;6121841;28;20135;-68
2022/03/13 10:01:30;;;;;;;17.50;6.82;;;16.10;46.80;;;;;;6121369;28;20330;-67
2022/03/13 10:04:31;;;;;;;21.85;9.13;;;16.20;46.60;;;;;;6121527;28;20759;-67
2022/03/13 10:07:55;;;;;;;66.68;27.63;;;16.20;46.50;;;;;;6119979;28;20036;-68
2022/03/13 10:10:57;;;;;;;21.52;8.25;;;16.30;46.10;;;;;;6114615;28;20103;-68
2022/03/13 10:14:07;;;;;;;19.38;7.97;;;16.40;45.50;;;;;;6099912;29;20055;-69
2022/03/13 10:17:37;;;;;;;17.15;7.18;;;16.40;45.20;;;;;;6112739;28;20048;-67
2022/03/13 10:20:41;;;;;;;15.07;6.13;;;16.40;45.80;;;;;;6110040;28;20470;-69
2022/03/13 10:23:43;;;;;;;29.65;13.15;;;16.50;45.10;;;;;;6115630;28;20104;-69
2022/03/13 10:26:44;;;;;;;22.05;10.13;;;16.60;45.20;;;;;;6122580;28;20146;-69
2022/03/13 10:29:48;;;;;;;27.85;12.65;;;16.70;45.10;;;;;;6116485;28;20119;-69
2022/03/13 10:32:57;;;;;;;35.95;14.98;;;16.90;45.10;;;;;;6120450;28;20469;-68
2022/03/13 10:36:12;;;;;;;16.30;7.97;;;17.00;44.90;;;;;;6117949;28;20103;-68
2022/03/13 10:39:18;;;;;;;19.83;9.95;;;17.20;44.70;;;;;;6132958;28;20504;-68
2022/03/13 10:42:29;;;;;;;25.38;9.68;;;17.30;44.60;;;;;;6115950;28;20343;-68
2022/03/13 10:45:49;;;;;;;37.88;15.32;;;17.50;44.20;;;;;;6116292;28;20453;-68
2022/03/13 10:48:50;;;;;;;29.73;12.80;;;17.60;44.00;;;;;;6105991;28;20209;-68
2022/03/13 10:51:50;;;;;;;10.60;5.47;;;17.70;43.70;;;;;;6105753;28;20043;-67
2022/03/13 10:54:53;;;;;;;30.83;11.00;;;17.80;43.00;;;;;;6118887;28;20115;-68
2022/03/13 10:57:57;;;;;;;12.25;5.70;;;17.80;42.70;;;;;;6118301;28;20051;-67
2022/03/13 11:01:18;;;;;;;11.32;4.90;;;17.90;42.70;;;;;;6113653;28;20032;-68
2022/03/13 11:04:25;;;;;;;9.20;5.03;;;17.90;42.10;;;;;;6114355;28;20091;-68
2022/03/13 11:07:27;;;;;;;16.88;8.45;;;17.90;41.80;;;;;;6137106;28;20032;-67
2022/03/13 11:10:28;;;;;;;13.20;5.28;;;18.00;41.80;;;;;;6118426;28;20063;-67
2022/03/13 11:13:31;;;;;;;9.05;5.00;;;18.00;41.60;;;;;;6117486;28;20455;-69
2022/03/13 11:16:33;;;;;;;9.80;4.18;;;18.10;41.50;;;;;;6108375;28;20049;-67
2022/03/13 11:19:40;;;;;;;18.85;4.97;;;18.20;41.30;;;;;;6131582;28;20039;-67
2022/03/13 11:22:41;;;;;;;13.68;5.70;;;18.30;40.50;;;;;;6102883;28;20043;-68
2022/03/13 11:25:43;;;;;;;27.00;10.55;;;18.30;40.50;;;;;;6118369;28;20039;-68
2022/03/13 11:28:45;;;;;;;25.83;8.93;;;18.40;40.10;;;;;;6112812;28;20163;-68
2022/03/13 11:31:47;;;;;;;12.45;4.05;;;18.40;40.10;;;;;;6117685;28;20036;-69
2022/03/13 11:35:07;;;;;;;18.20;7.32;;;18.50;39.90;;;;;;6115413;28;20051;-69
2022/03/13 11:38:15;;;;;;;9.90;3.85;;;18.50;39.10;;;;;;6110101;28;20063;-68
2022/03/13 11:41:37;;;;;;;5.25;1.73;;;18.50;38.80;;;;;;6115017;28;20453;-68
2022/03/13 11:44:39;;;;;;;2.53;1.63;;;18.50;38.00;;;;;;6114068;28;20055;-68
2022/03/13 11:47:40;;;;;;;2.55;1.83;;;18.60;37.80;;;;;;6111497;28;20043;-68
2022/03/13 11:50:47;;;;;;;12.45;3.00;;;18.70;37.80;;;;;;6108147;28;20028;-69
2022/03/13 11:53:49;;;;;;;4.18;1.70;;;18.80;37.80;;;;;;6111571;28;20047;-68
2022/03/13 11:56:50;;;;;;;4.68;1.98;;;18.90;37.50;;;;;;6110980;28;20059;-69
2022/03/13 12:00:10;;;;;;;12.45;4.93;;;19.00;37.20;;;;;;6114903;28;20071;-68
2022/03/13 12:03:18;;;;;;;1.15;1.05;;;19.10;37.10;;;;;;6110728;28;20052;-69
2022/03/13 12:06:40;;;;;;;1.92;1.20;;;19.30;36.50;;;;;;6112716;28;20055;-69
2022/03/13 12:09:43;;;;;;;3.20;1.27;;;19.40;36.20;;;;;;6116518;28;20039;-69
2022/03/13 12:13:05;;;;;;;3.53;1.52;;;19.50;35.60;;;;;;6114024;28;20043;-69
2022/03/13 12:16:17;;;;;;;1.67;1.10;;;19.80;35.60;;;;;;6111649;28;20051;-69
2022/03/13 12:19:19;;;;;;;2.17;1.10;;;19.90;35.00;;;;;;6106456;28;20082;-69
2022/03/13 12:22:23;;;;;;;5.68;2.30;;;20.00;34.70;;;;;;6115132;28;20050;-68
2022/03/13 12:25:25;;;;;;;2.85;1.20;;;19.90;33.90;;;;;;6111699;28;20039;-69
2022/03/13 12:28:33;;;;;;;1.80;0.93;;;19.90;33.30;;;;;;6116543;28;20050;-69
2022/03/13 12:31:42;;;;;;;3.42;1.02;;;19.90;33.20;;;;;;6114714;28;20122;-69
2022/03/13 12:34:44;;;;;;;4.30;1.10;;;19.90;33.00;;;;;;6098923;28;20123;-69
2022/03/13 12:38:01;;;;;;;1.17;0.90;;;20.00;33.00;;;;;;6116586;28;20126;-70
2022/03/13 12:41:09;;;;;;;1.13;0.80;;;20.00;32.90;;;;;;6112670;28;20043;-69
2022/03/13 12:44:12;;;;;;;3.58;1.02;;;20.00;32.80;;;;;;6105293;28;20508;-69
2022/03/13 12:47:27;;;;;;;8.15;1.20;;;19.90;32.40;;;;;;6105726;28;20127;-69
2022/03/13 12:50:29;;;;;;;2.03;1.10;;;19.80;32.40;;;;;;6108446;28;20100;-69
2022/03/13 12:53:31;;;;;;;2.22;1.00;;;19.80;32.50;;;;;;6117942;28;20434;-69
2022/03/13 12:56:35;;;;;;;1.42;1.00;;;19.80;32.90;;;;;;6115796;28;20078;-69
2022/03/13 12:59:41;;;;;;;5.10;1.02;;;19.80;33.30;;;;;;6099203;28;20048;-68
2022/03/13 13:02:42;;;;;;;1.33;0.98;;;19.80;33.20;;;;;;6114821;28;20036;-69
2022/03/13 13:05:50;;;;;;;6.82;1.50;;;19.90;33.30;;;;;;6118090;28;20457;-69
2022/03/13 13:08:50;;;;;;;1.35;0.88;;;20.00;33.90;;;;;;6113971;28;20035;-68
2022/03/13 13:11:52;;;;;;;1.13;0.75;;;20.00;32.30;;;;;;6117951;28;20357;-69
2022/03/13 13:14:53;;;;;;;1.10;0.80;;;20.00;32.40;;;;;;6112482;28;20036;-69
2022/03/13 13:17:54;;;;;;;1.85;1.10;;;20.00;32.50;;;;;;6115503;28;20043;-69
2022/03/13 13:21:09;;;;;;;0.70;0.63;;;20.00;32.60;;;;;;6116039;28;20054;-68
2022/03/13 13:24:25;;;;;;;1.73;0.80;;;20.00;32.40;;;;;;6092700;28;20114;-69
2022/03/13 13:27:42;;;;;;;1.73;0.93;;;19.90;32.20;;;;;;6094923;28;20118;-70
2022/03/13 13:30:43;;;;;;;2.65;1.10;;;19.80;32.20;;;;;;6113498;28;20036;-69
2022/03/13 13:33:46;;;;;;;1.05;0.70;;;19.70;32.50;;;;;;6118753;28;20032;-69
2022/03/13 13:36:47;;;;;;;1.10;0.60;;;19.60;32.60;;;;;;6119127;28;20368;-69
2022/03/13 13:40:04;;;;;;;0.75;0.70;;;19.40;32.80;;;;;;6108316;28;20040;-69
2022/03/13 13:43:22;;;;;;;2.95;1.33;;;19.30;33.00;;;;;;6131313;28;20047;-69
2022/03/13 13:46:32;;;;;;;0.82;0.70;;;19.30;33.10;;;;;;6117569;28;20104;-70
2022/03/13 13:49:34;;;;;;;4.18;1.98;;;19.20;33.10;;;;;;6114450;28;20422;-68
2022/03/13 13:52:35;;;;;;;3.15;1.23;;;19.10;33.20;;;;;;6116895;28;20043;-68
2022/03/13 13:55:38;;;;;;;1.70;1.00;;;19.00;33.10;;;;;;6122234;28;20046;-68
2022/03/13 13:58:39;;;;;;;1.52;0.80;;;19.10;33.30;;;;;;6120006;28;20051;-67
2022/03/13 14:01:41;;;;;;;0.70;0.70;;;19.10;33.20;;;;;;6100121;28;20115;-67
2022/03/13 14:04:45;;;;;;;0.90;0.73;;;19.10;33.00;;;;;;6122276;28;20040;-67
2022/03/13 14:07:49;;;;;;;12.32;0.70;;;19.20;32.90;;;;;;6118547;28;20438;-67
2022/03/13 14:10:50;;;;;;;1.27;0.70;;;19.30;32.70;;;;;;6122372;28;20046;-68
2022/03/13 14:13:52;;;;;;;1.40;0.80;;;19.30;32.70;;;;;;6101993;28;20084;-67
2022/03/13 14:16:53;;;;;;;1.33;0.68;;;19.30;32.70;;;;;;6120049;28;20040;-69
2022/03/13 14:19:54;;;;;;;1.33;0.77;;;19.30;32.70;;;;;;6120954;28;20040;-69
2022/03/13 14:22:55;;;;;;;0.73;0.55;;;19.40;32.70;;;;;;6122361;28;20050;-69
2022/03/13 14:25:57;;;;;;;3.70;0.60;;;19.40;32.50;;;;;;6122316;28;20031;-69
2022/03/13 14:29:00;;;;;;;0.52;0.52;;;19.40;32.50;;;;;;6117794;28;20040;-68
2022/03/13 14:32:01;;;;;;;0.73;0.70;;;19.40;32.50;;;;;;6119022;28;20040;-68
2022/03/13 14:35:05;;;;;;;0.95;0.70;;;19.50;32.30;;;;;;6120450;28;20134;-69
2022/03/13 14:38:06;;;;;;;0.95;0.50;;;19.50;32.20;;;;;;6130903;28;20056;-70
2022/03/13 14:41:07;;;;;;;1.00;0.52;;;19.50;32.40;;;;;;6102204;29;20092;-69
2022/03/13 14:44:10;;;;;;;0.60;0.60;;;19.50;32.40;;;;;;6107552;28;20039;-69
2022/03/13 14:47:12;;;;;;;0.50;0.50;;;19.40;32.30;;;;;;6101759;29;20469;-69
2022/03/13 14:50:13;;;;;;;1.00;1.00;;;19.30;32.40;;;;;;6106266;28;20171;-68
2022/03/13 14:53:17;;;;;;;8.15;0.80;;;19.10;32.70;;;;;;6121453;28;20393;-68
2022/03/13 14:56:18;;;;;;;1.33;0.68;;;19.00;33.40;;;;;;6122150;28;20044;-68
2022/03/13 14:59:19;;;;;;;0.40;0.30;;;18.80;33.70;;;;;;6119023;28;20044;-69
2022/03/13 15:02:20;;;;;;;1.23;0.60;;;18.60;34.00;;;;;;6100249;29;20032;-69
2022/03/13 15:05:21;;;;;;;0.55;0.50;;;18.50;34.30;;;;;;6112164;28;20048;-69
2022/03/13 15:08:22;;;;;;;1.55;0.75;;;18.50;34.50;;;;;;6119976;28;20119;-69
2022/03/13 15:11:24;;;;;;;0.50;0.50;;;18.40;34.50;;;;;;6121319;28;20027;-69
2022/03/13 15:14:25;;;;;;;1.33;0.73;;;18.40;34.80;;;;;;6123599;28;20032;-69
2022/03/13 15:17:27;;;;;;;0.57;0.50;;;18.30;34.80;;;;;;6114640;29;20473;-69
2022/03/13 15:20:28;;;;;;;0.85;0.70;;;18.20;34.90;;;;;;6100796;28;20052;-68
2022/03/13 15:23:29;;;;;;;1.10;0.70;;;18.20;35.10;;;;;;6126342;28;20031;-69
2022/03/13 15:26:30;;;;;;;0.65;0.52;;;18.10;35.20;;;;;;6096724;28;20028;-69
2022/03/13 15:29:31;;;;;;;1.15;0.60;;;18.10;35.30;;;;;;6099483;28;20429;-69
2022/03/13 15:32:32;;;;;;;0.52;0.47;;;18.10;35.20;;;;;;6117439;28;20047;-69
2022/03/13 15:35:34;;;;;;;1.25;0.60;;;18.10;35.20;;;;;;6116038;28;20066;-68
2022/03/13 15:38:35;;;;;;;0.52;0.40;;;18.00;35.20;;;;;;6121118;28;20044;-67
2022/03/13 15:41:36;;;;;;;0.65;0.43;;;18.00;35.20;;;;;;6130362;28;20103;-68
2022/03/13 15:44:37;;;;;;;1.55;0.88;;;18.00;35.20;;;;;;6108155;28;20040;-67
2022/03/13 15:47:38;;;;;;;0.88;0.57;;;17.90;35.20;;;;;;6106457;28;20050;-69